Curtis Field
KBBD : now visible

Airfield :











YOU CAN JOIN US ON...

 
LOGIN :

Register | Disclaimer

   EN    FR    IT 

 









Legend :    VFR   Marginal VFR   IFR   Intensive IFR   Very Intensive IFR
Visi :
Ceiling :
>= 8 km
>= 3000ft
5 to 8 km
1000 to 3000 ft
1500m to 5 km
500 to 1000 ft
800 to 1500m
200 to 500 ft
< 800m
< 200 ft
Symbols :   Thunderstorms  Fog  Heavy snow  Heavy precipitations  Wind > 20 kt






- Airport Elevation : 1827 ft


KBBD - Curtis Field

CURRENT METAR :
  • 142015Z AUTO 20007G12KT 10SM CLR 25/02 A2974 RMK AO2

EXPIRED METARs :
  • 141955Z AUTO VRB06G12KT 10SM CLR 24/01 A2975 RMK AO2
  • 141935Z AUTO 21009KT 10SM CLR 24/02 A2975 RMK AO2
  • 141915Z AUTO 17008G15KT 9SM CLR 23/02 A2977 RMK AO2
  • 141855Z AUTO 17008KT 2 1/2SM HZ CLR 22/02 A2978 RMK AO2
  • 141835Z AUTO 16007KT 1SM HZ CLR 21/02 A2980 RMK AO2
  • 141815Z AUTO 16006KT 10SM CLR 20/02 A2982 RMK AO2
  • 141755Z AUTO 16007KT 10SM CLR 19/01 A2983 RMK AO2
  • 141735Z AUTO 18005KT 10SM CLR 18/02 A2984 RMK AO2

TAF KBBD
Valid from the 14 at 18:00 until the 15 at 18:00 UTC


141730Z 1418/1518 19006KT P6SM SKC



MET'MAP, your aeronautical weather chart ! - Copyright ORBIFLY December 2007 - Disclaimer

ORBIFLY MET'MAP TEAM :

Programming & Development : Alexandra Zaïnal
Concept & original design : Baudouin d'Aumeries
Assistance for programming : Marc-Olivier Méhu
Technical & hardware support : Manuel Goepfert

Contact : metmap@orbifly.com




SOURCES & CREDITS :

   NOAA       Earth
Advisory